Detall de PIREP

Printer-friendly versionPDF version

[2011/08/30 16:01:00]
Flight IATA:CT3114
Pilot Number:037
Company ICAO:CAT
Aircraft Type:B752/E
PAX:148
Departing Airport: LEBL
Destination Airport: LEVC
Alternate Airport:LEPA
Online: VATSIM
Route:LOTOS B28 SOPET

Flight Level:F210
No Slew and time accel
No pause
Crash detect
Detect pilot in Cockpit between each 30 and 45 minutes
16:01 Zero fuel Weight: 170327 Lbs, Fuel Weight: 19025 Lbs
16:01 VATSIM:LEBL 301530Z 17006KT 140V210 9999 FEW020 27/22 Q1011 NOSIG
16:01 VATSIM:LEVC 301530Z 07012KT 050V110 9999 FEW030 30/23 Q1010 NOSIG
16:12 Parking Brakes off
16:25 Take-off
16:25 Take off Weight: 188066 Lbs
16:25 Wind: 200º @ 006 Knots Heading: 244º
16:25 POS N41º 17´ 12´´ E002º 05´ 14´´
16:25 Gear Up: 179 Knots
16:25 Flaps:3 at 179 Knots
16:25 Flaps:2 at 215 Knots
16:25 Flaps:1 at 217 Knots
16:25 Flaps:0 at 213 Knots
16:33 TOC
16:33 Fuel Weight: 15286 Lb
16:40 Wind:185º@016 Knots Heading: 225º Ground Speed: 448 Knots Altitude 20931 ft
16:42 TOD
16:42 Fuel Weight: 13709 Lb
16:49 Flaps:1 at 214 Knots
16:55 Wind:073º@014 Knots Heading: 229º Ground Speed: 228 Knots Altitude 5003 ft
16:55 Flaps:2 at 195 Knots
17:03 Flaps:3 at 175 Knots
17:04 Gear Down: 163 Knots
17:04 Flaps:4 at 164 Knots
17:05 Flaps:5 at 161 Knots
17:05 TouchDown:Rate -364 ft/min Speed: 136 Knots
17:05 VATSIM:LEVC 301630Z 07009KT 030V140 9999 FEW030 29/23 Q1010 NOSIG
17:05 Land
17:05 Wind:075º@009 Knots
17:05 Heading: 115º
17:05 Flight Duration: 00:40
17:05 Landing Weight: 181677 Lbs
17:05 POS N39º 29´ 18´´ W000º 28´ 44´´
17:13 Parking brakes on
17:13 Block to Block Duration: 01:01
17:13 Final Fuel: 10800 Lbls
17:13 Spent Fuel: 8225 Lbls
17:13 Flight Length: 201 NM
17:13 TOD Land Length: 97 NM

Exportar CSV

Powered by Drupal - Modified by Danger4k